Time;durP1;ratioP1;P1;durP2;ratioP2;P2;SDS_P1;SDS_P2;PMS_P1;PMS_P2;Temp;Humidity;BMP_temperature;BMP_pressure;BME280_temperature;BME280_humidity;BME280_pressure;Samples;Min_cycle;Max_cycle;Signal;HPM_P1;HPM_P2
2022/11/16 00:00:59;;;;;;;20.87;16.27;;;;;;;;;;5112796;28;20231;-79
2022/11/16 00:03:25;;;;;;;20.60;15.37;;;;;;;;;;5112702;28;20207;-80
2022/11/16 00:05:56;;;;;;;23.27;16.13;;;;;;;;;;5112813;28;20204;-80
2022/11/16 00:08:22;;;;;;;21.90;15.97;;;;;;;;;;5113210;28;20242;-79
2022/11/16 00:10:49;;;;;;;26.03;17.57;;;;;;;;;;5113034;28;20211;-80
2022/11/16 00:13:16;;;;;;;27.03;16.50;;;;;;;;;;5112935;28;20199;-79
2022/11/16 00:15:43;;;;;;;24.47;17.63;;;;;;;;;;5112582;28;20257;-79
2022/11/16 00:18:11;;;;;;;21.47;15.53;;;;;;;;;;5112549;28;20207;-79
2022/11/16 00:20:39;;;;;;;24.37;17.60;;;;;;;;;;5112555;28;20207;-79
2022/11/16 00:23:05;;;;;;;23.27;17.50;;;;;;;;;;5112613;28;20246;-79
2022/11/16 00:25:33;;;;;;;21.57;15.50;;;;;;;;;;5112589;28;20200;-79
2022/11/16 00:28:00;;;;;;;24.77;15.83;;;;;;;;;;5112323;28;20222;-79
2022/11/16 00:30:27;;;;;;;20.77;16.03;;;;;;;;;;5112306;28;20295;-80
2022/11/16 00:32:54;;;;;;;20.43;15.27;;;;;;;;;;5111908;28;20206;-79
2022/11/16 00:35:22;;;;;;;20.17;15.07;;;;;;;;;;5112556;28;20210;-80
2022/11/16 00:37:49;;;;;;;20.00;15.37;;;;;;;;;;5112690;28;20207;-79
2022/11/16 00:40:16;;;;;;;22.43;14.87;;;;;;;;;;5111908;28;20203;-79
2022/11/16 00:42:43;;;;;;;22.23;15.63;;;;;;;;;;5112362;28;20200;-79
2022/11/16 00:45:10;;;;;;;21.77;15.87;;;;;;;;;;5111802;28;20207;-79
2022/11/16 00:47:37;;;;;;;25.33;17.50;;;;;;;;;;5112108;28;20223;-79
2022/11/16 00:50:05;;;;;;;21.97;17.03;;;;;;;;;;5111906;28;21009;-79
2022/11/16 00:52:33;;;;;;;27.17;18.03;;;;;;;;;;5112223;28;20196;-79
2022/11/16 00:55:00;;;;;;;26.67;16.90;;;;;;;;;;5112014;28;20681;-79
2022/11/16 00:57:28;;;;;;;23.87;15.90;;;;;;;;;;5111873;28;20204;-79
2022/11/16 00:59:54;;;;;;;22.80;16.90;;;;;;;;;;5111156;28;20203;-79
2022/11/16 01:02:21;;;;;;;24.43;17.53;;;;;;;;;;5112085;28;20238;-79
2022/11/16 01:04:48;;;;;;;21.90;16.90;;;;;;;;;;5112050;28;20936;-79
2022/11/16 01:07:15;;;;;;;24.90;16.17;;;;;;;;;;5111361;28;20195;-79
2022/11/16 01:09:43;;;;;;;22.57;16.77;;;;;;;;;;5111625;28;20204;-79
2022/11/16 01:12:09;;;;;;;25.40;16.93;;;;;;;;;;5111550;28;20203;-79
2022/11/16 01:14:36;;;;;;;22.67;16.53;;;;;;;;;;5111030;28;20210;-79
2022/11/16 01:17:03;;;;;;;22.97;16.30;;;;;;;;;;5111745;28;20208;-79
2022/11/16 01:19:29;;;;;;;21.70;16.57;;;;;;;;;;5111203;28;20700;-79
2022/11/16 01:21:56;;;;;;;22.00;16.53;;;;;;;;;;5111774;28;20215;-80
2022/11/16 01:24:23;;;;;;;23.53;16.23;;;;;;;;;;5111129;28;20203;-80
2022/11/16 01:26:55;;;;;;;25.07;16.50;;;;;;;;;;5110723;28;20219;-79
2022/11/16 01:29:22;;;;;;;23.83;15.90;;;;;;;;;;5111089;28;20717;-80
2022/11/16 01:31:49;;;;;;;23.97;17.33;;;;;;;;;;5111612;28;20200;-79
2022/11/16 01:34:16;;;;;;;22.87;16.00;;;;;;;;;;5111394;28;20264;-80
2022/11/16 01:36:42;;;;;;;24.77;17.27;;;;;;;;;;5111269;28;20207;-79
2022/11/16 01:39:11;;;;;;;25.63;15.90;;;;;;;;;;5111242;28;20200;-80
2022/11/16 01:41:38;;;;;;;23.00;16.20;;;;;;;;;;5110981;28;20195;-79
2022/11/16 01:44:22;;;;;;;20.37;15.17;;;;;;;;;;5110959;28;20203;-80
2022/11/16 01:46:49;;;;;;;22.60;16.20;;;;;;;;;;5110391;28;20195;-79
2022/11/16 01:49:18;;;;;;;29.70;17.63;;;;;;;;;;5111010;28;20640;-79
2022/11/16 01:51:48;;;;;;;25.50;17.50;;;;;;;;;;5111156;28;20259;-80
2022/11/16 01:54:15;;;;;;;22.07;16.93;;;;;;;;;;5097133;28;20210;-80
2022/11/16 01:56:45;;;;;;;25.90;17.03;;;;;;;;;;5110616;28;20195;-79
2022/11/16 01:59:14;;;;;;;23.63;16.13;;;;;;;;;;5110815;28;20245;-79
2022/11/16 02:01:41;;;;;;;20.33;13.90;;;;;;;;;;5111103;28;20265;-79
2022/11/16 02:04:10;;;;;;;24.57;17.10;;;;;;;;;;5110452;28;20219;-79
2022/11/16 02:06:50;;;;;;;23.97;18.47;;;;;;;;;;5111003;28;20223;-79
2022/11/16 02:12:33;;;;;;;23.03;16.23;;;;;;;;;;5110729;28;20255;-79
2022/11/16 02:15:09;;;;;;;22.33;15.63;;;;;;;;;;5110559;28;20207;-79
2022/11/16 02:17:41;;;;;;;22.13;16.23;;;;;;;;;;5110679;28;20669;-79
2022/11/16 02:20:42;;;;;;;21.77;15.47;;;;;;;;;;5110606;28;20210;-80
2022/11/16 02:23:22;;;;;;;21.63;15.97;;;;;;;;;;5110736;28;20223;-80
2022/11/16 02:25:56;;;;;;;25.50;17.17;;;;;;;;;;5110818;28;20681;-79
2022/11/16 02:28:34;;;;;;;24.43;16.30;;;;;;;;;;5110910;28;20223;-79
2022/11/16 02:31:05;;;;;;;24.03;16.87;;;;;;;;;;5110761;28;20203;-79
2022/11/16 02:33:35;;;;;;;25.20;16.87;;;;;;;;;;5110329;28;20200;-79
2022/11/16 02:36:03;;;;;;;24.80;18.03;;;;;;;;;;5110444;28;20206;-79
2022/11/16 02:38:32;;;;;;;21.77;15.70;;;;;;;;;;5098818;28;20203;-79
2022/11/16 02:41:03;;;;;;;22.00;16.47;;;;;;;;;;5114582;28;20207;-79
2022/11/16 02:43:32;;;;;;;24.30;17.63;;;;;;;;;;5114607;28;20572;-79
2022/11/16 02:46:05;;;;;;;26.23;16.57;;;;;;;;;;5114216;28;20199;-80
2022/11/16 02:48:35;;;;;;;25.30;17.77;;;;;;;;;;5114484;28;20235;-79
2022/11/16 02:51:05;;;;;;;25.43;18.00;;;;;;;;;;5114622;28;20256;-79
2022/11/16 02:53:32;;;;;;;23.73;15.93;;;;;;;;;;5114119;28;20208;-80
2022/11/16 02:55:59;;;;;;;23.83;17.57;;;;;;;;;;5114354;28;20574;-79
2022/11/16 02:58:26;;;;;;;24.57;18.13;;;;;;;;;;5114244;28;20208;-80
2022/11/16 03:00:58;;;;;;;25.53;18.23;;;;;;;;;;5113598;28;20235;-80
2022/11/16 03:03:31;;;;;;;25.47;17.53;;;;;;;;;;5114151;28;20203;-82
2022/11/16 03:06:01;;;;;;;25.67;18.20;;;;;;;;;;5096300;28;20721;-76
2022/11/16 03:08:31;;;;;;;21.80;16.87;;;;;;;;;;5113897;28;20223;-77
2022/11/16 03:13:46;;;;;;;22.83;16.47;;;;;;;;;;5113838;28;20742;-76
2022/11/16 03:16:16;;;;;;;24.63;15.50;;;;;;;;;;5113712;28;20202;-76
2022/11/16 03:18:46;;;;;;;26.63;17.23;;;;;;;;;;5113938;28;20640;-76
2022/11/16 03:21:17;;;;;;;23.23;17.60;;;;;;;;;;5113885;28;20199;-76
2022/11/16 03:23:45;;;;;;;22.00;15.13;;;;;;;;;;5113073;28;20203;-76
2022/11/16 03:26:13;;;;;;;24.13;17.17;;;;;;;;;;5112916;28;20222;-76
2022/11/16 03:28:46;;;;;;;22.93;17.83;;;;;;;;;;5113653;28;20223;-76
2022/11/16 03:31:15;;;;;;;22.87;16.23;;;;;;;;;;5113617;28;20203;-76
2022/11/16 03:33:46;;;;;;;23.90;17.03;;;;;;;;;;5113308;28;20601;-77
2022/11/16 03:36:17;;;;;;;22.63;16.60;;;;;;;;;;5112987;28;20207;-76
2022/11/16 03:38:45;;;;;;;19.40;15.73;;;;;;;;;;5113797;28;20203;-79
2022/11/16 03:41:13;;;;;;;23.87;16.67;;;;;;;;;;5113397;28;20199;-80
2022/11/16 03:43:42;;;;;;;23.30;16.67;;;;;;;;;;5113076;28;20210;-80
2022/11/16 03:46:09;;;;;;;24.33;17.10;;;;;;;;;;5113498;28;20203;-79
2022/11/16 03:48:38;;;;;;;25.07;17.17;;;;;;;;;;5112726;28;20222;-80
2022/11/16 03:51:08;;;;;;;24.40;17.77;;;;;;;;;;5112763;28;20203;-80
2022/11/16 03:53:35;;;;;;;25.57;17.13;;;;;;;;;;5113080;28;20195;-80
2022/11/16 03:56:02;;;;;;;25.20;17.20;;;;;;;;;;5112689;28;20772;-79
2022/11/16 03:58:29;;;;;;;25.37;17.03;;;;;;;;;;5113352;28;20618;-80
2022/11/16 04:00:56;;;;;;;25.03;16.80;;;;;;;;;;5112641;28;20260;-79
2022/11/16 04:03:22;;;;;;;24.77;18.00;;;;;;;;;;5112747;28;20660;-80
2022/11/16 04:25:11;;;;;;;60.97;34.73;;;;;;;;;;5098984;28;20203;-79
2022/11/16 04:30:22;;;;;;;34.20;22.90;;;;;;;;;;5111444;28;20246;-79
2022/11/16 04:38:18;;;;;;;38.87;25.47;;;;;;;;;;5112188;28;20272;-79
2022/11/16 04:40:46;;;;;;;35.63;24.17;;;;;;;;;;5111996;28;20211;-79
2022/11/16 04:43:12;;;;;;;28.33;19.93;;;;;;;;;;5112771;28;20593;-79
2022/11/16 04:48:23;;;;;;;29.67;18.00;;;;;;;;;;5111832;28;20809;-79
2022/11/16 04:50:50;;;;;;;23.30;17.63;;;;;;;;;;5111635;28;20642;-80
2022/11/16 04:53:17;;;;;;;28.13;18.87;;;;;;;;;;5108118;28;20248;-79
2022/11/16 04:55:43;;;;;;;38.20;31.47;;;;;;;;;;5111420;28;20693;-80
2022/11/16 04:58:12;;;;;;;29.23;21.53;;;;;;;;;;5109088;28;20196;-79
2022/11/16 05:00:38;;;;;;;30.60;22.43;;;;;;;;;;5111370;28;20721;-78
2022/11/16 05:03:05;;;;;;;23.27;17.67;;;;;;;;;;5110931;28;20196;-79
2022/11/16 05:05:32;;;;;;;30.93;21.13;;;;;;;;;;5106082;28;20222;-79
2022/11/16 05:07:59;;;;;;;50.17;36.10;;;;;;;;;;5110991;28;20258;-81
2022/11/16 05:10:26;;;;;;;35.97;26.30;;;;;;;;;;5107066;28;20242;-80
2022/11/16 05:12:53;;;;;;;34.87;23.73;;;;;;;;;;5111550;28;20199;-79
2022/11/16 05:15:21;;;;;;;27.53;20.70;;;;;;;;;;5111713;28;20728;-80
2022/11/16 05:17:48;;;;;;;30.43;20.07;;;;;;;;;;5111549;28;20586;-80
2022/11/16 05:23:00;;;;;;;25.93;18.90;;;;;;;;;;5111353;28;20708;-80
2022/11/16 05:25:26;;;;;;;25.03;18.60;;;;;;;;;;5111406;28;20207;-80
2022/11/16 05:27:53;;;;;;;28.20;18.93;;;;;;;;;;5111547;28;20199;-80
2022/11/16 05:30:21;;;;;;;29.23;18.97;;;;;;;;;;5111081;28;20227;-80
2022/11/16 05:32:48;;;;;;;22.93;17.43;;;;;;;;;;5110893;28;20686;-80
2022/11/16 05:35:15;;;;;;;25.77;18.80;;;;;;;;;;5111366;28;20207;-80
2022/11/16 05:37:41;;;;;;;24.37;17.87;;;;;;;;;;5111168;28;20214;-80
2022/11/16 05:40:09;;;;;;;25.00;19.10;;;;;;;;;;5110726;28;20204;-80
2022/11/16 05:42:36;;;;;;;23.63;16.90;;;;;;;;;;5111372;28;20277;-80
2022/11/16 05:45:03;;;;;;;29.53;20.77;;;;;;;;;;5110855;28;20330;-80
2022/11/16 05:47:32;;;;;;;24.43;18.57;;;;;;;;;;5110801;28;20670;-80
2022/11/16 05:49:59;;;;;;;29.60;21.77;;;;;;;;;;5110690;28;20234;-80
2022/11/16 05:52:25;;;;;;;32.40;24.97;;;;;;;;;;5110981;28;20199;-81
2022/11/16 05:54:52;;;;;;;33.40;24.63;;;;;;;;;;5111013;28;20200;-80
2022/11/16 05:57:19;;;;;;;35.97;25.90;;;;;;;;;;5111215;28;20219;-80
2022/11/16 05:59:46;;;;;;;28.80;23.23;;;;;;;;;;5110799;28;21021;-80
2022/11/16 06:02:13;;;;;;;27.10;21.10;;;;;;;;;;5110639;28;20227;-80
2022/11/16 06:04:41;;;;;;;33.43;21.90;;;;;;;;;;5111086;28;20693;-79
2022/11/16 06:07:08;;;;;;;26.50;18.17;;;;;;;;;;5111329;28;20256;-80
2022/11/16 06:09:35;;;;;;;26.17;19.87;;;;;;;;;;5110403;28;20223;-80
2022/11/16 06:12:01;;;;;;;31.20;22.60;;;;;;;;;;5110714;28;20614;-80
2022/11/16 06:14:28;;;;;;;37.00;28.03;;;;;;;;;;5110196;28;20198;-80
2022/11/16 06:16:55;;;;;;;31.27;23.00;;;;;;;;;;5111113;28;20199;-80
2022/11/16 06:19:22;;;;;;;29.00;20.27;;;;;;;;;;5110723;28;20196;-80
2022/11/16 06:21:50;;;;;;;24.67;16.80;;;;;;;;;;5108990;28;20200;-80
2022/11/16 06:24:17;;;;;;;20.73;17.27;;;;;;;;;;5104358;28;20218;-79
2022/11/16 06:26:45;;;;;;;27.13;19.07;;;;;;;;;;5110567;28;20203;-80
2022/11/16 06:29:12;;;;;;;26.60;19.23;;;;;;;;;;5110327;28;20230;-80
2022/11/16 06:31:39;;;;;;;23.23;17.80;;;;;;;;;;5096023;28;20203;-80
2022/11/16 06:34:06;;;;;;;24.37;19.07;;;;;;;;;;5110749;28;20200;-79
2022/11/16 06:36:33;;;;;;;31.73;21.90;;;;;;;;;;5110397;28;20701;-80
2022/11/16 06:39:01;;;;;;;34.10;22.87;;;;;;;;;;5110732;28;20207;-80
2022/11/16 06:41:28;;;;;;;30.70;21.73;;;;;;;;;;5110023;28;20647;-82
2022/11/16 06:43:55;;;;;;;32.67;20.90;;;;;;;;;;5110523;28;20200;-80
2022/11/16 06:46:23;;;;;;;29.47;20.30;;;;;;;;;;5110307;28;20206;-80
2022/11/16 06:48:50;;;;;;;27.40;20.50;;;;;;;;;;5109952;28;20206;-79
2022/11/16 06:51:16;;;;;;;30.63;19.70;;;;;;;;;;5110637;28;20199;-80
2022/11/16 06:53:43;;;;;;;29.83;20.40;;;;;;;;;;5110362;28;20203;-80
2022/11/16 06:56:13;;;;;;;28.77;20.43;;;;;;;;;;5109596;28;20200;-80
2022/11/16 06:58:40;;;;;;;29.47;21.80;;;;;;;;;;5110515;28;20212;-80
2022/11/16 07:01:07;;;;;;;27.03;19.53;;;;;;;;;;5110343;28;20224;-80
2022/11/16 07:03:34;;;;;;;27.87;21.10;;;;;;;;;;5110384;28;20678;-80
2022/11/16 07:06:05;;;;;;;28.13;19.93;;;;;;;;;;5109999;28;20195;-80
2022/11/16 07:08:32;;;;;;;31.97;22.77;;;;;;;;;;5110363;28;20212;-80
2022/11/16 07:11:03;;;;;;;28.33;21.33;;;;;;;;;;5109482;28;20659;-80
2022/11/16 07:13:32;;;;;;;31.80;22.57;;;;;;;;;;5110687;28;20311;-80
2022/11/16 07:16:03;;;;;;;30.23;21.60;;;;;;;;;;5109695;28;20191;-80
2022/11/16 07:18:29;;;;;;;30.07;22.73;;;;;;;;;;5110074;28;20207;-80
2022/11/16 07:20:56;;;;;;;27.03;21.20;;;;;;;;;;5109939;28;20200;-80
2022/11/16 07:23:23;;;;;;;27.63;22.90;;;;;;;;;;5109964;28;20218;-80
2022/11/16 07:25:50;;;;;;;27.83;20.10;;;;;;;;;;5111997;28;20206;-82
2022/11/16 07:28:17;;;;;;;28.60;20.73;;;;;;;;;;5113608;28;20199;-80
2022/11/16 07:30:45;;;;;;;29.40;20.47;;;;;;;;;;5113518;28;20223;-80
2022/11/16 07:33:12;;;;;;;27.40;21.33;;;;;;;;;;5113476;28;20248;-80
2022/11/16 07:35:39;;;;;;;29.00;20.00;;;;;;;;;;5113379;28;20253;-81
2022/11/16 07:38:06;;;;;;;28.97;19.40;;;;;;;;;;5113167;28;20274;-80
2022/11/16 07:40:33;;;;;;;30.20;21.33;;;;;;;;;;5113627;28;20196;-80
2022/11/16 07:43:00;;;;;;;27.43;19.67;;;;;;;;;;5113595;28;20256;-82
2022/11/16 07:45:26;;;;;;;25.97;20.47;;;;;;;;;;5113247;28;20199;-80
2022/11/16 07:47:55;;;;;;;27.50;19.70;;;;;;;;;;5113227;28;20199;-80
2022/11/16 07:50:22;;;;;;;29.67;20.13;;;;;;;;;;5112502;28;20627;-80
2022/11/16 07:52:48;;;;;;;30.17;21.10;;;;;;;;;;5113316;28;20215;-80
2022/11/16 07:55:15;;;;;;;28.10;21.83;;;;;;;;;;5112962;28;20200;-81
2022/11/16 07:57:42;;;;;;;31.83;21.60;;;;;;;;;;5112775;28;20586;-80
2022/11/16 08:00:10;;;;;;;29.73;21.37;;;;;;;;;;5113236;28;20222;-80
2022/11/16 08:02:36;;;;;;;28.27;21.17;;;;;;;;;;5113265;28;20579;-80
2022/11/16 08:05:06;;;;;;;24.83;18.33;;;;;;;;;;5112774;28;20204;-79
2022/11/16 08:07:33;;;;;;;22.60;18.13;;;;;;;;;;5113075;28;20195;-80
2022/11/16 08:10:00;;;;;;;49.40;38.47;;;;;;;;;;5112883;28;20603;-80
2022/11/16 08:12:27;;;;;;;38.03;27.20;;;;;;;;;;5112765;28;20589;-80
2022/11/16 08:14:55;;;;;;;39.13;27.03;;;;;;;;;;5112838;28;20196;-79
2022/11/16 08:17:23;;;;;;;28.10;21.10;;;;;;;;;;5112320;28;20597;-80
2022/11/16 08:19:50;;;;;;;28.30;21.57;;;;;;;;;;5112348;28;20210;-80
2022/11/16 08:22:18;;;;;;;26.17;19.00;;;;;;;;;;5113027;28;20674;-80
2022/11/16 08:24:45;;;;;;;26.20;19.60;;;;;;;;;;5112280;28;20678;-80
2022/11/16 08:27:14;;;;;;;47.53;30.70;;;;;;;;;;5112650;28;20605;-80
2022/11/16 08:29:40;;;;;;;26.67;20.53;;;;;;;;;;5112355;28;20254;-80
2022/11/16 08:32:07;;;;;;;29.33;20.90;;;;;;;;;;5112601;28;20202;-80
2022/11/16 08:34:34;;;;;;;30.40;20.70;;;;;;;;;;5112347;28;20204;-80
2022/11/16 08:37:01;;;;;;;30.27;20.57;;;;;;;;;;5112123;28;20577;-80
2022/11/16 08:39:29;;;;;;;31.53;20.50;;;;;;;;;;5112521;28;20211;-79
2022/11/16 08:41:56;;;;;;;29.30;19.07;;;;;;;;;;5112235;28;20200;-80
2022/11/16 08:44:22;;;;;;;23.37;17.33;;;;;;;;;;5112232;28;20566;-80
2022/11/16 08:46:49;;;;;;;28.17;19.13;;;;;;;;;;5111740;28;20590;-80
2022/11/16 08:49:16;;;;;;;32.03;19.20;;;;;;;;;;5112020;28;20193;-80
2022/11/16 08:51:43;;;;;;;30.10;20.63;;;;;;;;;;5112120;28;20280;-80
2022/11/16 08:54:09;;;;;;;32.73;21.47;;;;;;;;;;5112063;28;20201;-80
2022/11/16 08:56:38;;;;;;;32.93;22.07;;;;;;;;;;5111815;28;20201;-80
2022/11/16 08:59:04;;;;;;;34.23;18.97;;;;;;;;;;5111872;28;20199;-80
2022/11/16 09:01:32;;;;;;;25.27;18.87;;;;;;;;;;5112019;28;20232;-80
2022/11/16 09:03:59;;;;;;;30.63;21.03;;;;;;;;;;5111869;28;20602;-79
2022/11/16 09:06:27;;;;;;;27.60;20.80;;;;;;;;;;5111481;28;20195;-79
2022/11/16 09:08:54;;;;;;;25.27;19.60;;;;;;;;;;5111608;28;20203;-80
2022/11/16 09:11:23;;;;;;;28.60;20.43;;;;;;;;;;5111560;28;20701;-80
2022/11/16 09:13:53;;;;;;;26.60;20.47;;;;;;;;;;5111245;28;20682;-80
2022/11/16 09:16:21;;;;;;;33.73;22.03;;;;;;;;;;5111680;28;20207;-80
2022/11/16 09:18:48;;;;;;;31.60;21.80;;;;;;;;;;5111545;28;20262;-79
2022/11/16 09:21:18;;;;;;;26.87;20.70;;;;;;;;;;5111651;28;20200;-80
2022/11/16 09:23:45;;;;;;;29.20;22.27;;;;;;;;;;5111592;28;20297;-80
2022/11/16 09:26:12;;;;;;;30.30;19.90;;;;;;;;;;5110912;28;20202;-80
2022/11/16 09:28:39;;;;;;;28.77;20.73;;;;;;;;;;5111301;28;20589;-80
2022/11/16 09:31:09;;;;;;;27.77;21.60;;;;;;;;;;5111057;28;20606;-80
2022/11/16 09:33:36;;;;;;;29.97;21.60;;;;;;;;;;5111441;28;20234;-80
2022/11/16 09:36:05;;;;;;;24.97;19.50;;;;;;;;;;5111082;28;20211;-81
2022/11/16 09:38:32;;;;;;;28.83;19.53;;;;;;;;;;5111519;28;20199;-80
2022/11/16 09:40:59;;;;;;;32.20;24.33;;;;;;;;;;5110824;28;20215;-80
2022/11/16 09:43:34;;;;;;;31.23;21.33;;;;;;;;;;5110863;28;20215;-80
2022/11/16 09:46:10;;;;;;;28.17;20.73;;;;;;;;;;5111477;28;20794;-79
2022/11/16 09:48:37;;;;;;;37.03;25.00;;;;;;;;;;5110516;28;20209;-80
2022/11/16 09:51:08;;;;;;;31.60;22.00;;;;;;;;;;5110657;28;20245;-80
2022/11/16 09:53:38;;;;;;;37.40;26.67;;;;;;;;;;5110918;28;20207;-80
2022/11/16 09:56:07;;;;;;;39.03;25.40;;;;;;;;;;5111253;28;20203;-79
2022/11/16 09:58:38;;;;;;;32.97;23.30;;;;;;;;;;5110885;28;20214;-79
2022/11/16 10:01:16;;;;;;;34.07;23.57;;;;;;;;;;5110928;28;20234;-80
2022/11/16 10:03:48;;;;;;;34.23;23.93;;;;;;;;;;5110723;28;20210;-80
2022/11/16 10:06:20;;;;;;;29.77;22.53;;;;;;;;;;5111127;28;20203;-80
2022/11/16 10:08:50;;;;;;;31.97;23.50;;;;;;;;;;5110902;28;20716;-80
2022/11/16 10:11:44;;;;;;;37.07;24.67;;;;;;;;;;5096242;28;20788;-80
2022/11/16 10:14:27;;;;;;;31.00;22.70;;;;;;;;;;5069457;28;20204;-80
2022/11/16 10:16:57;;;;;;;29.83;22.23;;;;;;;;;;5110985;28;20222;-79
2022/11/16 10:19:30;;;;;;;30.53;22.23;;;;;;;;;;5110481;28;20203;-79
2022/11/16 10:22:01;;;;;;;31.63;22.73;;;;;;;;;;5110563;28;20203;-79
2022/11/16 10:24:45;;;;;;;31.43;21.87;;;;;;;;;;5110753;28;20729;-80
2022/11/16 10:27:23;;;;;;;30.80;21.43;;;;;;;;;;5110934;28;20206;-79
2022/11/16 10:29:57;;;;;;;31.60;21.00;;;;;;;;;;5110370;28;20226;-79
2022/11/16 10:32:28;;;;;;;29.67;20.03;;;;;;;;;;5110500;28;20592;-80
2022/11/16 10:34:56;;;;;;;29.47;20.23;;;;;;;;;;5110294;28;20213;-80
2022/11/16 10:37:28;;;;;;;28.97;21.63;;;;;;;;;;5110753;28;20211;-79
2022/11/16 10:39:55;;;;;;;29.33;22.20;;;;;;;;;;5109846;28;20223;-79
2022/11/16 10:42:29;;;;;;;26.43;19.27;;;;;;;;;;5110489;28;20202;-79
2022/11/16 10:44:59;;;;;;;29.57;21.80;;;;;;;;;;5110484;28;20196;-79
2022/11/16 10:47:34;;;;;;;28.13;22.33;;;;;;;;;;5110229;28;20196;-80
2022/11/16 10:50:04;;;;;;;26.27;19.80;;;;;;;;;;5110245;28;20227;-80
2022/11/16 10:52:30;;;;;;;28.53;20.10;;;;;;;;;;5110652;28;20200;-80
2022/11/16 10:54:57;;;;;;;28.50;19.80;;;;;;;;;;5110387;28;20203;-79
2022/11/16 10:57:25;;;;;;;24.63;19.17;;;;;;;;;;5110468;28;20192;-80
2022/11/16 10:59:54;;;;;;;26.43;20.30;;;;;;;;;;5111132;28;20199;-79
2022/11/16 11:02:30;;;;;;;30.50;21.80;;;;;;;;;;5114254;28;20224;-79
2022/11/16 11:05:15;;;;;;;25.63;20.40;;;;;;;;;;5114191;28;20301;-79
2022/11/16 11:07:45;;;;;;;25.53;21.23;;;;;;;;;;5114130;28;20235;-80
2022/11/16 11:10:25;;;;;;;26.83;20.53;;;;;;;;;;5113795;28;20199;-80
2022/11/16 11:13:05;;;;;;;54.17;30.77;;;;;;;;;;5113754;28;20207;-80
2022/11/16 11:15:32;;;;;;;26.00;21.20;;;;;;;;;;5113796;28;20195;-79
2022/11/16 11:18:27;;;;;;;29.17;21.83;;;;;;;;;;5113816;28;20630;-79
2022/11/16 11:21:06;;;;;;;30.20;21.40;;;;;;;;;;5110806;28;20214;-80
2022/11/16 11:23:41;;;;;;;30.03;22.00;;;;;;;;;;5113838;28;20678;-79
2022/11/16 11:26:21;;;;;;;46.03;29.97;;;;;;;;;;5113530;28;20207;-80
2022/11/16 11:28:49;;;;;;;31.63;23.80;;;;;;;;;;5113819;28;20800;-80
2022/11/16 11:31:24;;;;;;;28.60;22.33;;;;;;;;;;5113521;28;20247;-80
2022/11/16 11:33:54;;;;;;;32.17;22.07;;;;;;;;;;5113336;28;20207;-79
2022/11/16 11:36:22;;;;;;;28.03;20.90;;;;;;;;;;5101528;28;20211;-79
2022/11/16 11:38:58;;;;;;;31.03;22.47;;;;;;;;;;5102726;28;20191;-79
2022/11/16 11:41:33;;;;;;;30.87;22.67;;;;;;;;;;5106971;28;20200;-80
2022/11/16 11:44:02;;;;;;;31.43;22.20;;;;;;;;;;5108234;28;20211;-80
2022/11/16 11:46:31;;;;;;;31.33;21.77;;;;;;;;;;5112145;28;20195;-80
2022/11/16 11:49:05;;;;;;;29.57;22.37;;;;;;;;;;5108244;28;20261;-80
2022/11/16 11:51:34;;;;;;;30.80;22.73;;;;;;;;;;5111159;28;20306;-80
2022/11/16 11:54:03;;;;;;;31.93;21.70;;;;;;;;;;5113085;28;20208;-79
2022/11/16 11:56:32;;;;;;;29.23;21.43;;;;;;;;;;5112878;28;20639;-79
2022/11/16 11:58:59;;;;;;;31.40;23.27;;;;;;;;;;5113277;28;20203;-80
2022/11/16 12:02:02;;;;;;;34.93;23.23;;;;;;;;;;5109705;28;20220;-79
2022/11/16 12:04:58;;;;;;;32.00;23.87;;;;;;;;;;5108111;28;20586;-82
2022/11/16 12:07:36;;;;;;;29.30;21.43;;;;;;;;;;5100812;28;20200;-79
2022/11/16 12:10:07;;;;;;;31.33;22.17;;;;;;;;;;5112657;28;20206;-79
2022/11/16 12:12:45;;;;;;;26.33;20.03;;;;;;;;;;5112881;28;20571;-80
2022/11/16 12:15:31;;;;;;;33.30;22.30;;;;;;;;;;5112347;28;20206;-80
2022/11/16 12:18:03;;;;;;;31.57;22.37;;;;;;;;;;5101261;28;20200;-80
2022/11/16 12:20:35;;;;;;;30.43;21.10;;;;;;;;;;5099568;28;20199;-80
2022/11/16 12:23:33;;;;;;;30.23;19.83;;;;;;;;;;5110901;28;20200;-80
2022/11/16 12:26:04;;;;;;;26.17;19.53;;;;;;;;;;5096742;28;20669;-80
2022/11/16 12:28:44;;;;;;;27.53;20.93;;;;;;;;;;5100661;28;20208;-80
2022/11/16 12:31:27;;;;;;;30.23;21.80;;;;;;;;;;5105307;28;20711;-80
2022/11/16 12:33:59;;;;;;;31.23;22.70;;;;;;;;;;5097369;28;20241;-76
2022/11/16 12:36:33;;;;;;;27.50;21.13;;;;;;;;;;5112032;28;20212;-75
2022/11/16 12:39:09;;;;;;;26.80;20.00;;;;;;;;;;5108565;28;20196;-75
2022/11/16 12:42:18;;;;;;;25.37;19.90;;;;;;;;;;5101668;28;20203;-75
2022/11/16 12:44:58;;;;;;;27.80;20.93;;;;;;;;;;5097691;28;20713;-76
2022/11/16 12:47:31;;;;;;;27.70;20.57;;;;;;;;;;5098318;28;20206;-75
2022/11/16 12:50:07;;;;;;;30.73;19.93;;;;;;;;;;5112004;28;20203;-76
2022/11/16 12:52:55;;;;;;;26.73;20.23;;;;;;;;;;5110978;28;20283;-77
2022/11/16 12:55:30;;;;;;;28.27;20.00;;;;;;;;;;5111723;28;20210;-76
2022/11/16 12:58:05;;;;;;;30.27;23.17;;;;;;;;;;5101144;28;20203;-77
2022/11/16 13:00:39;;;;;;;25.70;18.73;;;;;;;;;;5111358;28;20635;-76
2022/11/16 13:03:16;;;;;;;27.60;21.07;;;;;;;;;;5111018;28;20252;-77
2022/11/16 13:05:50;;;;;;;23.83;17.90;;;;;;;;;;5111833;28;20279;-76
2022/11/16 13:08:21;;;;;;;21.87;18.53;;;;;;;;;;5106157;28;20230;-77
2022/11/16 13:10:51;;;;;;;26.03;19.53;;;;;;;;;;5108217;28;20252;-76
2022/11/16 13:13:22;;;;;;;24.03;18.00;;;;;;;;;;5102262;28;20204;-76
2022/11/16 13:15:49;;;;;;;24.47;19.10;;;;;;;;;;5110203;28;20201;-77
2022/11/16 13:18:18;;;;;;;23.50;17.30;;;;;;;;;;5108120;28;20555;-77
2022/11/16 13:20:49;;;;;;;25.13;19.17;;;;;;;;;;5111148;28;20211;-76
2022/11/16 13:23:18;;;;;;;24.60;18.77;;;;;;;;;;5106875;28;20196;-77
2022/11/16 13:25:50;;;;;;;24.07;19.30;;;;;;;;;;5111097;28;20223;-76
2022/11/16 13:28:22;;;;;;;21.60;16.80;;;;;;;;;;5111007;28;20561;-77
2022/11/16 13:30:57;;;;;;;25.17;19.40;;;;;;;;;;5106871;28;20211;-80
2022/11/16 13:33:33;;;;;;;24.20;17.60;;;;;;;;;;5111102;28;20228;-80
2022/11/16 13:36:43;;;;;;;21.80;17.83;;;;;;;;;;5110829;28;20682;-80
2022/11/16 13:39:13;;;;;;;24.17;17.93;;;;;;;;;;5110232;28;20218;-80
2022/11/16 13:41:42;;;;;;;23.17;17.33;;;;;;;;;;5110338;28;20199;-81
2022/11/16 13:44:31;;;;;;;22.27;16.47;;;;;;;;;;5110105;28;20207;-79
2022/11/16 13:47:03;;;;;;;21.77;17.13;;;;;;;;;;5095430;28;20237;-80
2022/11/16 13:49:33;;;;;;;22.83;18.30;;;;;;;;;;5097896;28;20200;-80
2022/11/16 13:52:03;;;;;;;23.67;18.43;;;;;;;;;;5106799;28;20223;-80
2022/11/16 13:54:32;;;;;;;24.57;19.27;;;;;;;;;;5110701;28;20674;-80
2022/11/16 13:57:01;;;;;;;25.47;19.20;;;;;;;;;;5109222;28;20207;-80
2022/11/16 13:59:30;;;;;;;28.20;21.03;;;;;;;;;;5110273;28;20202;-80
2022/11/16 14:01:59;;;;;;;27.70;23.47;;;;;;;;;;5110526;28;20709;-81
2022/11/16 14:04:40;;;;;;;23.03;18.57;;;;;;;;;;5108182;28;20207;-82
2022/11/16 14:07:28;;;;;;;23.30;18.83;;;;;;;;;;5098001;28;20294;-80
2022/11/16 14:09:55;;;;;;;17.43;14.30;;;;;;;;;;5110273;28;20670;-80
2022/11/16 14:12:57;;;;;;;22.07;17.67;;;;;;;;;;5110977;28;20226;-80
2022/11/16 14:15:37;;;;;;;20.63;15.37;;;;;;;;;;5110105;28;20769;-80
2022/11/16 14:18:36;;;;;;;20.13;16.40;;;;;;;;;;5109053;28;20291;-81
2022/11/16 14:21:11;;;;;;;19.33;14.97;;;;;;;;;;5102055;28;20204;-80
2022/11/16 14:24:10;;;;;;;16.50;13.60;;;;;;;;;;5109069;28;20252;-80
2022/11/16 14:26:52;;;;;;;20.83;15.63;;;;;;;;;;5108808;28;20215;-82
2022/11/16 14:29:29;;;;;;;34.00;19.83;;;;;;;;;;5095227;28;20199;-77
2022/11/16 14:31:57;;;;;;;20.20;16.83;;;;;;;;;;5110777;28;20225;-76
2022/11/16 14:34:28;;;;;;;20.20;15.60;;;;;;;;;;5111594;28;20296;-77
2022/11/16 14:36:56;;;;;;;16.17;13.47;;;;;;;;;;5114631;28;20234;-76
2022/11/16 14:39:32;;;;;;;18.60;13.97;;;;;;;;;;5114082;28;20563;-77
2022/11/16 14:42:02;;;;;;;17.27;12.80;;;;;;;;;;5114639;28;20199;-77
2022/11/16 14:44:34;;;;;;;16.40;12.97;;;;;;;;;;5114434;28;20203;-77
2022/11/16 14:47:02;;;;;;;15.87;13.00;;;;;;;;;;5114014;28;20647;-78
2022/11/16 14:49:32;;;;;;;17.33;12.33;;;;;;;;;;5113889;28;20206;-78
2022/11/16 14:52:01;;;;;;;15.43;12.03;;;;;;;;;;5108822;28;20295;-78
2022/11/16 14:54:32;;;;;;;13.63;11.67;;;;;;;;;;5102537;28;20260;-78
2022/11/16 14:57:02;;;;;;;19.60;16.10;;;;;;;;;;5112017;28;20207;-78
2022/11/16 14:59:34;;;;;;;14.47;12.33;;;;;;;;;;5107875;28;20215;-77
2022/11/16 15:02:04;;;;;;;15.97;11.00;;;;;;;;;;5104046;28;20235;-77
2022/11/16 15:04:31;;;;;;;18.97;12.87;;;;;;;;;;5112577;28;20203;-80
2022/11/16 15:07:02;;;;;;;27.93;17.83;;;;;;;;;;5113856;28;20207;-79
2022/11/16 15:09:30;;;;;;;17.93;14.23;;;;;;;;;;5111522;28;20207;-80
2022/11/16 15:14:47;;;;;;;27.37;19.13;;;;;;;;;;5114296;28;20677;-79
2022/11/16 15:17:16;;;;;;;21.87;17.40;;;;;;;;;;5104980;28;20200;-78